Al Cenac — WDD5445 — position and weather

sailwx.info

Track history (hours):
 
Tides and Currents Weather Stations Pressure Air Temp Water Temp Dewpoint Dewpoint Depression Visibility Wind Speed Wind Dir Waves Ship Positions

Al Cenac

Owner: Caillou Island Towing Co, Inc., Houma, LA. More information available from US FCC via Universal Licensing System and Coast Guard Vessel Documentation Center.

Last reported at 2018-Jan-23 09:59 UTC. Time now 2018-Jan-23 10:12 UTC.
Position N 40°38' W 074°08'.

; draft 10 m.

Type: Tug. MMSI: 367158530.

Date/timePositionNaut miles runAvg speedWind from/ knotsBaromVisibWave heightAir tempDewpointWater temp
2018-Jan-23 09:59N 40°38' W 074°08'0 0.0
2018-Jan-23 09:30N 40°38' W 074°08'0 0.0
2018-Jan-23 08:59N 40°38' W 074°08'0 0.0
2018-Jan-23 08:30N 40°38' W 074°08'0 0.0
2018-Jan-23 08:00N 40°38' W 074°08'0 0.0
2018-Jan-23 07:30N 40°38' W 074°08'0 0.0
2018-Jan-23 07:00N 40°38' W 074°08'0 0.0
2018-Jan-23 06:29N 40°38' W 074°08'0 0.0
2018-Jan-23 06:00N 40°38' W 074°08'0 0.5
2018-Jan-23 05:30N 40°39' W 074°08'2 4.0
2018-Jan-23 05:00N 40°39' W 074°05'0 0.8
2018-Jan-23 04:30N 40°39' W 074°05'0 0.7
2018-Jan-23 04:00N 40°39' W 074°06'1 1.5
2018-Jan-23 03:30N 40°39' W 074°07'1 1.6
2018-Jan-23 03:00N 40°38' W 074°08'0 0.0
2018-Jan-23 02:30N 40°38' W 074°08'0 0.0
2018-Jan-23 02:00N 40°38' W 074°08'0 0.0
2018-Jan-23 01:30N 40°38' W 074°08'0 0.0
2018-Jan-23 00:59N 40°38' W 074°08'0 0.0
2018-Jan-23 00:30N 40°38' W 074°08'0 0.0
2018-Jan-23 00:00N 40°38' W 074°08'0 0.0
2018-Jan-22 23:30N 40°38' W 074°08'0 0.0
2018-Jan-22 23:00N 40°38' W 074°08'0 0.0
2018-Jan-22 22:30N 40°38' W 074°08'0 0.0
2018-Jan-22 22:00N 40°38' W 074°08'0 0.0
2018-Jan-22 21:30N 40°38' W 074°08'0 0.2
2018-Jan-22 20:59N 40°39' W 074°08'1 3.1
2018-Jan-22 20:30N 40°39' W 074°10'0 0.0
2018-Jan-22 19:59N 40°39' W 074°10'0 0.1
2018-Jan-22 19:30N 40°39' W 074°10'0 0.0
2018-Jan-22 18:59N 40°39' W 074°10'1 2.4
2018-Jan-22 18:30N 40°39' W 074°08'1 2.4
2018-Jan-22 18:00N 40°39' W 074°10'0 0.0
2018-Jan-22 17:30N 40°39' W 074°10'0 0.0
2018-Jan-22 16:59N 40°39' W 074°10'0 0.7
2018-Jan-22 16:29N 40°38' W 074°09'0 0.3
2018-Jan-22 15:59N 40°38' W 074°09'1 0.6
2018-Jan-22 14:00N 40°39' W 074°08'0 0.0
2018-Jan-22 13:01N 40°39' W 074°08'0 0.0
2018-Jan-22 12:54N 40°39' W 074°08'0 0.0
2018-Jan-22 12:08N 40°39' W 074°08'0 0.0
2018-Jan-22 11:43N 40°39' W 074°08'0 0.0
2018-Jan-22 11:29N 40°39' W 074°08'0 0.0
2018-Jan-22 10:50N 40°39' W 074°08'0 0.0
2018-Jan-22 10:29N 40°39' W 074°08'0 0.0
2018-Jan-22 10:00N 40°39' W 074°08'0 0.0
2018-Jan-22 09:30N 40°39' W 074°08'0 0.0
2018-Jan-22 09:00N 40°39' W 074°08'0 0.0
2018-Jan-22 08:30N 40°39' W 074°08'0 0.0
2018-Jan-22 08:00N 40°39' W 074°08'0 0.0
2018-Jan-22 07:30N 40°39' W 074°08'0 0.0
2018-Jan-22 06:59N 40°39' W 074°08'0 0.0
2018-Jan-22 06:29N 40°39' W 074°08'0 0.0
2018-Jan-22 06:00N 40°39' W 074°08'0 0.0
2018-Jan-22 05:30N 40°39' W 074°08'0 0.0
2018-Jan-22 04:58N 40°39' W 074°08'0 0.0
2018-Jan-22 04:30N 40°39' W 074°08'0 0.0
2018-Jan-22 03:59N 40°39' W 074°08'0 0.0
2018-Jan-22 03:29N 40°39' W 074°08'0 0.0
2018-Jan-22 03:00N 40°39' W 074°08'0 0.0
2018-Jan-22 02:30N 40°39' W 074°08'0 0.0
2018-Jan-22 02:00N 40°39' W 074°08'0 0.0
2018-Jan-22 01:30N 40°39' W 074°08'0 0.0
2018-Jan-22 00:58N 40°39' W 074°08'0 0.0
2018-Jan-22 00:29N 40°39' W 074°08'0 0.0
2018-Jan-22 00:00N 40°39' W 074°08'0 0.0
2018-Jan-21 23:27N 40°39' W 074°08'0 0.0
2018-Jan-21 23:00N 40°39' W 074°08'1 2.2
2018-Jan-21 22:30N 40°39' W 074°07'1 2.2
2018-Jan-21 22:00N 40°39' W 074°08'0 0.0
2018-Jan-21 21:29N 40°39' W 074°08'0 0.0
2018-Jan-21 21:00N 40°39' W 074°08'0 0.0
2018-Jan-21 20:30N 40°39' W 074°08'0 0.0
2018-Jan-21 19:59N 40°39' W 074°08'0 0.0
2018-Jan-21 19:30N 40°39' W 074°08'0 0.0
2018-Jan-21 19:00N 40°39' W 074°08'0 0.0
2018-Jan-21 18:30N 40°39' W 074°08'0 0.0
2018-Jan-21 18:00N 40°39' W 074°08'0 0.1
2018-Jan-21 17:30N 40°38' W 074°08'0 0.0
2018-Jan-21 17:00N 40°38' W 074°08'0 0.0
2018-Jan-21 16:30N 40°38' W 074°08'0 0.0
2018-Jan-21 15:59N 40°38' W 074°08'0 0.0
2018-Jan-21 15:30N 40°38' W 074°08'0 0.0
2018-Jan-21 14:59N 40°38' W 074°08'0 0.0
2018-Jan-21 14:30N 40°38' W 074°08'0 0.0
2018-Jan-21 14:00N 40°38' W 074°08'0 0.0
2018-Jan-21 13:29N 40°38' W 074°08'0 0.0
2018-Jan-21 12:58N 40°38' W 074°08'0 0.0
2018-Jan-21 12:30N 40°38' W 074°08'0 0.0
2018-Jan-21 12:00N 40°38' W 074°08'0 0.0
2018-Jan-21 11:29N 40°38' W 074°08'0 0.0
2018-Jan-21 11:00N 40°38' W 074°08'0 0.0
2018-Jan-21 10:30N 40°38' W 074°08'0 0.0
2018-Jan-21 10:00N 40°38' W 074°08'0 0.0
2018-Jan-21 09:30N 40°38' W 074°08'1 1.6
2018-Jan-21 09:00N 40°39' W 074°07'0 0.0
2018-Jan-21 08:30N 40°39' W 074°07'1 1.1
2018-Jan-21 08:00N 40°39' W 074°08'0 0.4
2018-Jan-21 07:30N 40°38' W 074°08'0 0.0
2018-Jan-21 07:00N 40°38' W 074°08'0 0.0
2018-Jan-21 06:30N 40°38' W 074°08'0 0.0
2018-Jan-21 06:00N 40°38' W 074°08'0 0.0
2018-Jan-21 05:30N 40°38' W 074°08'0 0.0
2018-Jan-21 05:00N 40°38' W 074°08'0 0.0
2018-Jan-21 04:29N 40°38' W 074°08'1 1.9
2018-Jan-21 04:00N 40°39' W 074°07'0 0.5
2018-Jan-21 03:30N 40°39' W 074°07'1 1.2
2018-Jan-21 03:00N 40°39' W 074°06'1 2.1
2018-Jan-21 02:30N 40°39' W 074°07'1 1.0
2018-Jan-21 02:00N 40°38' W 074°08'0 0.0
2018-Jan-21 01:30N 40°38' W 074°08'0 0.0
2018-Jan-21 01:00N 40°38' W 074°08'0 0.0
2018-Jan-21 00:30N 40°38' W 074°08'0 0.0
2018-Jan-21 00:00N 40°38' W 074°08'0 0.0
2018-Jan-20 23:29N 40°38' W 074°08'1 1.2
2018-Jan-20 22:59N 40°38' W 074°09'3 6.7
2018-Jan-20 22:30N 40°42' W 074°07'1 1.9
2018-Jan-20 22:00N 40°43' W 074°07'0 0.0
2018-Jan-20 21:30N 40°43' W 074°07'1 2.2
2018-Jan-20 21:00N 40°41' W 074°08'3 5.6
2018-Jan-20 20:29N 40°39' W 074°08'0 0.9
2018-Jan-20 20:00N 40°38' W 074°08'0 0.0
2018-Jan-20 19:30N 40°38' W 074°08'0 0.0
2018-Jan-20 19:00N 40°38' W 074°08'0 0.0
2018-Jan-20 18:29N 40°38' W 074°08'0 0.0
2018-Jan-20 18:00N 40°38' W 074°08'0 0.0
2018-Jan-20 17:30N 40°38' W 074°08'0 0.0
2018-Jan-20 17:00N 40°38' W 074°08'0 0.0
2018-Jan-20 16:30N 40°38' W 074°08'0 0.0
2018-Jan-20 16:00N 40°38' W 074°08'0 0.0
2018-Jan-20 15:29N 40°38' W 074°08'0 0.0
2018-Jan-20 14:59N 40°38' W 074°08'0 0.0
2018-Jan-20 14:30N 40°38' W 074°08'0 0.0
2018-Jan-20 13:59N 40°38' W 074°08'0 0.0
2018-Jan-20 13:30N 40°38' W 074°08'0 0.2
2018-Jan-20 13:00N 40°39' W 074°08'1 1.8
2018-Jan-20 12:30N 40°39' W 074°07'2 3.7
2018-Jan-20 12:00N 40°39' W 074°04'3 5.5
2018-Jan-20 11:30N 40°38' W 074°08'0 0.0
2018-Jan-20 11:00N 40°38' W 074°08'0 0.0
2018-Jan-20 10:30N 40°38' W 074°08'0 0.0
2018-Jan-20 10:00N 40°38' W 074°08'0 0.0
2018-Jan-20 09:30N 40°38' W 074°08'0 0.0
2018-Jan-20 09:00N 40°38' W 074°08'0 0.0
2018-Jan-20 08:30N 40°38' W 074°08'0 0.0
2018-Jan-20 08:00N 40°38' W 074°08'0 0.0
2018-Jan-20 07:30N 40°38' W 074°08'0 0.0
2018-Jan-20 07:00N 40°38' W 074°08'0 0.0
2018-Jan-20 06:30N 40°38' W 074°08'0 0.0
2018-Jan-20 05:59N 40°38' W 074°08'0 0.0
2018-Jan-20 05:30N 40°38' W 074°08'0 0.0
2018-Jan-20 04:59N 40°38' W 074°08'0 0.0
2018-Jan-20 04:30N 40°38' W 074°08'0 0.0
2018-Jan-20 04:00N 40°38' W 074°08'0 0.0
2018-Jan-20 03:29N 40°38' W 074°08'0 0.0
2018-Jan-20 03:00N 40°38' W 074°08'0 0.0
2018-Jan-20 02:30N 40°38' W 074°08'0 0.0
2018-Jan-20 02:00N 40°38' W 074°08'0 0.0
2018-Jan-20 01:30N 40°38' W 074°08'0 0.0
2018-Jan-20 01:00N 40°38' W 074°08'0 0.0
2018-Jan-20 00:30N 40°38' W 074°08'0 0.0
2018-Jan-19 23:59N 40°38' W 074°08'0 0.0
2018-Jan-19 23:28N 40°38' W 074°08'2 3.9
2018-Jan-19 23:00N 40°39' W 074°06'0 1.0
2018-Jan-19 22:30N 40°39' W 074°06'2 4.7
2018-Jan-19 22:00N 40°38' W 074°09'1 1.0
2018-Jan-19 21:30N 40°39' W 074°10'0 0.0
2018-Jan-19 21:00N 40°39' W 074°10'0 0.0
2018-Jan-19 20:30N 40°39' W 074°10'0 0.0
2018-Jan-19 20:00N 40°39' W 074°10'0 0.0
2018-Jan-19 19:30N 40°39' W 074°10'0 0.0
2018-Jan-19 19:00N 40°39' W 074°10'0 0.0
2018-Jan-19 18:30N 40°39' W 074°10'0 0.0
2018-Jan-19 18:00N 40°39' W 074°10'0 0.0
2018-Jan-19 17:30N 40°39' W 074°10'1 1.0
2018-Jan-19 17:00N 40°38' W 074°09'3 6.9
2018-Jan-19 16:30N 40°39' W 074°05'1 1.6
2018-Jan-19 16:00N 40°40' W 074°04'3 5.8
2018-Jan-19 15:29N 40°39' W 074°08'2 3.3
2018-Jan-19 15:00N 40°39' W 074°10'0 0.0
2018-Jan-19 14:30N 40°39' W 074°10'0 0.0
2018-Jan-19 14:00N 40°39' W 074°10'0 0.2
2018-Jan-19 13:30N 40°39' W 074°10'0 0.0
2018-Jan-19 12:59N 40°39' W 074°10'0 0.0
2018-Jan-19 12:30N 40°39' W 074°10'0 0.0
2018-Jan-19 12:00N 40°39' W 074°10'1 3.0
2018-Jan-19 11:30N 40°39' W 074°08'0 0.2
2018-Jan-19 11:00N 40°38' W 074°08'0 0.0
2018-Jan-19 10:30N 40°38' W 074°08'0 0.0
2018-Jan-19 10:00N 40°38' W 074°08'0 0.0
2018-Jan-19 09:29N 40°38' W 074°08'0 0.0
2018-Jan-19 09:00N 40°38' W 074°08'0 0.0
2018-Jan-19 08:30N 40°38' W 074°08'0 0.0
2018-Jan-19 07:59N 40°38' W 074°08'0 0.0
2018-Jan-19 07:30N 40°38' W 074°08'0 0.0
2018-Jan-19 07:00N 40°38' W 074°08'0 0.0
2018-Jan-19 06:30N 40°38' W 074°08'0 0.0
2018-Jan-19 05:59N 40°38' W 074°08'0 0.0
2018-Jan-19 05:30N 40°38' W 074°08'0 0.0
2018-Jan-19 05:00N 40°38' W 074°08'0 0.0
2018-Jan-19 04:30N 40°38' W 074°08'0 0.0
2018-Jan-19 04:00N 40°38' W 074°08'0 0.0
2018-Jan-19 03:29N 40°38' W 074°08'0 0.0
2018-Jan-19 03:00N 40°38' W 074°08'0 0.0
2018-Jan-19 02:30N 40°38' W 074°08'0 0.0
2018-Jan-19 02:00N 40°38' W 074°08'0 0.0
2018-Jan-19 01:30N 40°38' W 074°08'0 0.0
2018-Jan-19 01:00N 40°38' W 074°08'0 0.0
2018-Jan-19 00:28N 40°38' W 074°08'0 0.0
2018-Jan-19 00:00N 40°38' W 074°08'0 0.0
2018-Jan-18 23:30N 40°38' W 074°08'0 0.0
2018-Jan-18 22:59N 40°38' W 074°08'2 3.1
2018-Jan-18 22:29N 40°39' W 074°10'0 0.0
2018-Jan-18 21:59N 40°39' W 074°10'0 0.0
2018-Jan-18 21:30N 40°39' W 074°10'0 0.1
2018-Jan-18 20:59N 40°39' W 074°10'1 3.0
2018-Jan-18 20:30N 40°38' W 074°08'0 0.0
2018-Jan-18 20:00N 40°38' W 074°08'0 0.0
2018-Jan-18 19:30N 40°38' W 074°08'0 0.0
2018-Jan-18 19:00N 40°38' W 074°08'0 0.0
2018-Jan-18 18:30N 40°38' W 074°08'0 0.0
2018-Jan-18 18:00N 40°38' W 074°08'0 0.0
2018-Jan-18 17:28N 40°38' W 074°08'0 0.0
2018-Jan-18 16:58N 40°38' W 074°08'0 0.0
2018-Jan-18 16:30N 40°38' W 074°08'0 0.0
2018-Jan-18 16:00N 40°38' W 074°08'1 2.3
2018-Jan-18 15:30N 40°38' W 074°09'0 0.9
2018-Jan-18 15:00N 40°39' W 074°10'2 4.8
2018-Jan-18 14:30N 40°39' W 074°07'2 4.6
2018-Jan-18 14:00N 40°40' W 074°04'0 0.1
2018-Jan-18 13:30N 40°40' W 074°04'0 0.0
2018-Jan-18 13:00N 40°40' W 074°04'3 4.2
2018-Jan-18 12:15N 40°38' W 074°08'0 0.0
2018-Jan-18 11:59N 40°38' W 074°08'0 0.0
2018-Jan-18 11:01N 40°38' W 074°08'0 0.0
2018-Jan-18 10:52N 40°38' W 074°08'0 0.0
2018-Jan-18 10:29N 40°38' W 074°08'0 0.0
2018-Jan-18 09:58N 40°38' W 074°08'0 0.0
2018-Jan-18 06:57N 40°38' W 074°08'0 0.0
2018-Jan-18 05:30N 40°38' W 074°08'0 0.0
2018-Jan-18 05:00N 40°38' W 074°08'0 0.0
2018-Jan-18 04:28N 40°38' W 074°08'0 0.0
2018-Jan-18 04:00N 40°38' W 074°08'2 3.6
2018-Jan-18 03:30N 40°39' W 074°06'3 6.9
2018-Jan-18 03:00N 40°41' W 074°02'1 2.8
2018-Jan-18 02:30N 40°41' W 074°00'1 1.4
2018-Jan-18 02:00N 40°41' W 074°01'4 7.0
2018-Jan-18 01:30N 40°39' W 074°05'2 3.6
2018-Jan-18 00:59N 40°39' W 074°07'0 0.1
2018-Jan-17 23:59N 40°39' W 074°07'0 3.3
2018-Jan-17 23:57N 40°39' W 074°07'  
Track history (hours):
 
Tides and Currents Weather Stations Pressure Air Temp Water Temp Dewpoint Dewpoint Depression Visibility Wind Speed Wind Dir Waves Ship Positions

Al Cenac

Owner: Caillou Island Towing Co, Inc., Houma, LA. More information available from US FCC via Universal Licensing System and Coast Guard Vessel Documentation Center.

Last reported at 2018-Jan-23 09:59 UTC. Time now 2018-Jan-23 10:12 UTC.
Position N 40°38' W 074°08'.

; draft 10 m.

Type: Tug. MMSI: 367158530.

Date/timePositionNaut miles runAvg speedWind from/ knotsBaromVisibWave heightAir tempDewpointWater temp
2018-Jan-23 09:59N 40°38' W 074°08'0 0.0
2018-Jan-23 09:30N 40°38' W 074°08'0 0.0
2018-Jan-23 08:59N 40°38' W 074°08'0 0.0
2018-Jan-23 08:30N 40°38' W 074°08'0 0.0
2018-Jan-23 08:00N 40°38' W 074°08'0 0.0
2018-Jan-23 07:30N 40°38' W 074°08'0 0.0
2018-Jan-23 07:00N 40°38' W 074°08'0 0.0
2018-Jan-23 06:29N 40°38' W 074°08'0 0.0
2018-Jan-23 06:00N 40°38' W 074°08'0 0.5
2018-Jan-23 05:30N 40°39' W 074°08'2 4.0
2018-Jan-23 05:00N 40°39' W 074°05'0 0.8
2018-Jan-23 04:30N 40°39' W 074°05'0 0.7
2018-Jan-23 04:00N 40°39' W 074°06'1 1.5
2018-Jan-23 03:30N 40°39' W 074°07'1 1.6
2018-Jan-23 03:00N 40°38' W 074°08'0 0.0
2018-Jan-23 02:30N 40°38' W 074°08'0 0.0
2018-Jan-23 02:00N 40°38' W 074°08'0 0.0
2018-Jan-23 01:30N 40°38' W 074°08'0 0.0
2018-Jan-23 00:59N 40°38' W 074°08'0 0.0
2018-Jan-23 00:30N 40°38' W 074°08'0 0.0
2018-Jan-23 00:00N 40°38' W 074°08'0 0.0
2018-Jan-22 23:30N 40°38' W 074°08'0 0.0
2018-Jan-22 23:00N 40°38' W 074°08'0 0.0
2018-Jan-22 22:30N 40°38' W 074°08'0 0.0
2018-Jan-22 22:00N 40°38' W 074°08'0 0.0
2018-Jan-22 21:30N 40°38' W 074°08'0 0.2
2018-Jan-22 20:59N 40°39' W 074°08'1 3.1
2018-Jan-22 20:30N 40°39' W 074°10'0 0.0
2018-Jan-22 19:59N 40°39' W 074°10'0 0.1
2018-Jan-22 19:30N 40°39' W 074°10'0 0.0
2018-Jan-22 18:59N 40°39' W 074°10'1 2.4
2018-Jan-22 18:30N 40°39' W 074°08'1 2.4
2018-Jan-22 18:00N 40°39' W 074°10'0 0.0
2018-Jan-22 17:30N 40°39' W 074°10'0 0.0
2018-Jan-22 16:59N 40°39' W 074°10'0 0.7
2018-Jan-22 16:29N 40°38' W 074°09'0 0.3
2018-Jan-22 15:59N 40°38' W 074°09'1 0.6
2018-Jan-22 14:00N 40°39' W 074°08'0 0.0
2018-Jan-22 13:01N 40°39' W 074°08'0 0.0
2018-Jan-22 12:54N 40°39' W 074°08'0 0.0
2018-Jan-22 12:08N 40°39' W 074°08'0 0.0
2018-Jan-22 11:43N 40°39' W 074°08'0 0.0
2018-Jan-22 11:29N 40°39' W 074°08'0 0.0
2018-Jan-22 10:50N 40°39' W 074°08'0 0.0
2018-Jan-22 10:29N 40°39' W 074°08'0 0.0
2018-Jan-22 10:00N 40°39' W 074°08'0 0.0
2018-Jan-22 09:30N 40°39' W 074°08'0 0.0
2018-Jan-22 09:00N 40°39' W 074°08'0 0.0
2018-Jan-22 08:30N 40°39' W 074°08'0 0.0
2018-Jan-22 08:00N 40°39' W 074°08'0 0.0
2018-Jan-22 07:30N 40°39' W 074°08'0 0.0
2018-Jan-22 06:59N 40°39' W 074°08'0 0.0
2018-Jan-22 06:29N 40°39' W 074°08'0 0.0
2018-Jan-22 06:00N 40°39' W 074°08'0 0.0
2018-Jan-22 05:30N 40°39' W 074°08'0 0.0
2018-Jan-22 04:58N 40°39' W 074°08'0 0.0
2018-Jan-22 04:30N 40°39' W 074°08'0 0.0
2018-Jan-22 03:59N 40°39' W 074°08'0 0.0
2018-Jan-22 03:29N 40°39' W 074°08'0 0.0
2018-Jan-22 03:00N 40°39' W 074°08'0 0.0
2018-Jan-22 02:30N 40°39' W 074°08'0 0.0
2018-Jan-22 02:00N 40°39' W 074°08'0 0.0
2018-Jan-22 01:30N 40°39' W 074°08'0 0.0
2018-Jan-22 00:58N 40°39' W 074°08'0 0.0
2018-Jan-22 00:29N 40°39' W 074°08'0 0.0
2018-Jan-22 00:00N 40°39' W 074°08'0 0.0
2018-Jan-21 23:27N 40°39' W 074°08'0 0.0
2018-Jan-21 23:00N 40°39' W 074°08'1 2.2
2018-Jan-21 22:30N 40°39' W 074°07'1 2.2
2018-Jan-21 22:00N 40°39' W 074°08'0 0.0
2018-Jan-21 21:29N 40°39' W 074°08'0 0.0
2018-Jan-21 21:00N 40°39' W 074°08'0 0.0
2018-Jan-21 20:30N 40°39' W 074°08'0 0.0
2018-Jan-21 19:59N 40°39' W 074°08'0 0.0
2018-Jan-21 19:30N 40°39' W 074°08'0 0.0
2018-Jan-21 19:00N 40°39' W 074°08'0 0.0
2018-Jan-21 18:30N 40°39' W 074°08'0 0.0
2018-Jan-21 18:00N 40°39' W 074°08'0 0.1
2018-Jan-21 17:30N 40°38' W 074°08'0 0.0
2018-Jan-21 17:00N 40°38' W 074°08'0 0.0
2018-Jan-21 16:30N 40°38' W 074°08'0 0.0
2018-Jan-21 15:59N 40°38' W 074°08'0 0.0
2018-Jan-21 15:30N 40°38' W 074°08'0 0.0
2018-Jan-21 14:59N 40°38' W 074°08'0 0.0
2018-Jan-21 14:30N 40°38' W 074°08'0 0.0
2018-Jan-21 14:00N 40°38' W 074°08'0 0.0
2018-Jan-21 13:29N 40°38' W 074°08'0 0.0
2018-Jan-21 12:58N 40°38' W 074°08'0 0.0
2018-Jan-21 12:30N 40°38' W 074°08'0 0.0
2018-Jan-21 12:00N 40°38' W 074°08'0 0.0
2018-Jan-21 11:29N 40°38' W 074°08'0 0.0
2018-Jan-21 11:00N 40°38' W 074°08'0 0.0
2018-Jan-21 10:30N 40°38' W 074°08'0 0.0
2018-Jan-21 10:00N 40°38' W 074°08'0 0.0
2018-Jan-21 09:30N 40°38' W 074°08'1 1.6
2018-Jan-21 09:00N 40°39' W 074°07'0 0.0
2018-Jan-21 08:30N 40°39' W 074°07'1 1.1
2018-Jan-21 08:00N 40°39' W 074°08'0 0.4
2018-Jan-21 07:30N 40°38' W 074°08'0 0.0
2018-Jan-21 07:00N 40°38' W 074°08'0 0.0
2018-Jan-21 06:30N 40°38' W 074°08'0 0.0
2018-Jan-21 06:00N 40°38' W 074°08'0 0.0
2018-Jan-21 05:30N 40°38' W 074°08'0 0.0
2018-Jan-21 05:00N 40°38' W 074°08'0 0.0
2018-Jan-21 04:29N 40°38' W 074°08'1 1.9
2018-Jan-21 04:00N 40°39' W 074°07'0 0.5
2018-Jan-21 03:30N 40°39' W 074°07'1 1.2
2018-Jan-21 03:00N 40°39' W 074°06'1 2.1
2018-Jan-21 02:30N 40°39' W 074°07'1 1.0
2018-Jan-21 02:00N 40°38' W 074°08'0 0.0
2018-Jan-21 01:30N 40°38' W 074°08'0 0.0
2018-Jan-21 01:00N 40°38' W 074°08'0 0.0
2018-Jan-21 00:30N 40°38' W 074°08'0 0.0
2018-Jan-21 00:00N 40°38' W 074°08'0 0.0
2018-Jan-20 23:29N 40°38' W 074°08'1 1.2
2018-Jan-20 22:59N 40°38' W 074°09'3 6.7
2018-Jan-20 22:30N 40°42' W 074°07'1 1.9
2018-Jan-20 22:00N 40°43' W 074°07'0 0.0
2018-Jan-20 21:30N 40°43' W 074°07'1 2.2
2018-Jan-20 21:00N 40°41' W 074°08'3 5.6
2018-Jan-20 20:29N 40°39' W 074°08'0 0.9
2018-Jan-20 20:00N 40°38' W 074°08'0 0.0
2018-Jan-20 19:30N 40°38' W 074°08'0 0.0
2018-Jan-20 19:00N 40°38' W 074°08'0 0.0
2018-Jan-20 18:29N 40°38' W 074°08'0 0.0
2018-Jan-20 18:00N 40°38' W 074°08'0 0.0
2018-Jan-20 17:30N 40°38' W 074°08'0 0.0
2018-Jan-20 17:00N 40°38' W 074°08'0 0.0
2018-Jan-20 16:30N 40°38' W 074°08'0 0.0
2018-Jan-20 16:00N 40°38' W 074°08'0 0.0
2018-Jan-20 15:29N 40°38' W 074°08'0 0.0
2018-Jan-20 14:59N 40°38' W 074°08'0 0.0
2018-Jan-20 14:30N 40°38' W 074°08'0 0.0
2018-Jan-20 13:59N 40°38' W 074°08'0 0.0
2018-Jan-20 13:30N 40°38' W 074°08'0 0.2
2018-Jan-20 13:00N 40°39' W 074°08'1 1.8
2018-Jan-20 12:30N 40°39' W 074°07'2 3.7
2018-Jan-20 12:00N 40°39' W 074°04'3 5.5
2018-Jan-20 11:30N 40°38' W 074°08'0 0.0
2018-Jan-20 11:00N 40°38' W 074°08'0 0.0
2018-Jan-20 10:30N 40°38' W 074°08'0 0.0
2018-Jan-20 10:00N 40°38' W 074°08'0 0.0
2018-Jan-20 09:30N 40°38' W 074°08'0 0.0
2018-Jan-20 09:00N 40°38' W 074°08'0 0.0
2018-Jan-20 08:30N 40°38' W 074°08'0 0.0
2018-Jan-20 08:00N 40°38' W 074°08'0 0.0
2018-Jan-20 07:30N 40°38' W 074°08'0 0.0
2018-Jan-20 07:00N 40°38' W 074°08'0 0.0
2018-Jan-20 06:30N 40°38' W 074°08'0 0.0
2018-Jan-20 05:59N 40°38' W 074°08'0 0.0
2018-Jan-20 05:30N 40°38' W 074°08'0 0.0
2018-Jan-20 04:59N 40°38' W 074°08'0 0.0
2018-Jan-20 04:30N 40°38' W 074°08'0 0.0
2018-Jan-20 04:00N 40°38' W 074°08'0 0.0
2018-Jan-20 03:29N 40°38' W 074°08'0 0.0
2018-Jan-20 03:00N 40°38' W 074°08'0 0.0
2018-Jan-20 02:30N 40°38' W 074°08'0 0.0
2018-Jan-20 02:00N 40°38' W 074°08'0 0.0
2018-Jan-20 01:30N 40°38' W 074°08'0 0.0
2018-Jan-20 01:00N 40°38' W 074°08'0 0.0
2018-Jan-20 00:30N 40°38' W 074°08'0 0.0
2018-Jan-19 23:59N 40°38' W 074°08'0 0.0
2018-Jan-19 23:28N 40°38' W 074°08'2 3.9
2018-Jan-19 23:00N 40°39' W 074°06'0 1.0
2018-Jan-19 22:30N 40°39' W 074°06'2 4.7
2018-Jan-19 22:00N 40°38' W 074°09'1 1.0
2018-Jan-19 21:30N 40°39' W 074°10'0 0.0
2018-Jan-19 21:00N 40°39' W 074°10'0 0.0
2018-Jan-19 20:30N 40°39' W 074°10'0 0.0
2018-Jan-19 20:00N 40°39' W 074°10'0 0.0
2018-Jan-19 19:30N 40°39' W 074°10'0 0.0
2018-Jan-19 19:00N 40°39' W 074°10'0 0.0
2018-Jan-19 18:30N 40°39' W 074°10'0 0.0
2018-Jan-19 18:00N 40°39' W 074°10'0 0.0
2018-Jan-19 17:30N 40°39' W 074°10'1 1.0
2018-Jan-19 17:00N 40°38' W 074°09'3 6.9
2018-Jan-19 16:30N 40°39' W 074°05'1 1.6
2018-Jan-19 16:00N 40°40' W 074°04'3 5.8
2018-Jan-19 15:29N 40°39' W 074°08'2 3.3
2018-Jan-19 15:00N 40°39' W 074°10'0 0.0
2018-Jan-19 14:30N 40°39' W 074°10'0 0.0
2018-Jan-19 14:00N 40°39' W 074°10'0 0.2
2018-Jan-19 13:30N 40°39' W 074°10'0 0.0
2018-Jan-19 12:59N 40°39' W 074°10'0 0.0
2018-Jan-19 12:30N 40°39' W 074°10'0 0.0
2018-Jan-19 12:00N 40°39' W 074°10'1 3.0
2018-Jan-19 11:30N 40°39' W 074°08'0 0.2
2018-Jan-19 11:00N 40°38' W 074°08'0 0.0
2018-Jan-19 10:30N 40°38' W 074°08'0 0.0
2018-Jan-19 10:00N 40°38' W 074°08'0 0.0
2018-Jan-19 09:29N 40°38' W 074°08'0 0.0
2018-Jan-19 09:00N 40°38' W 074°08'0 0.0
2018-Jan-19 08:30N 40°38' W 074°08'0 0.0
2018-Jan-19 07:59N 40°38' W 074°08'0 0.0
2018-Jan-19 07:30N 40°38' W 074°08'0 0.0
2018-Jan-19 07:00N 40°38' W 074°08'0 0.0
2018-Jan-19 06:30N 40°38' W 074°08'0 0.0
2018-Jan-19 05:59N 40°38' W 074°08'0 0.0
2018-Jan-19 05:30N 40°38' W 074°08'0 0.0
2018-Jan-19 05:00N 40°38' W 074°08'0 0.0
2018-Jan-19 04:30N 40°38' W 074°08'0 0.0
2018-Jan-19 04:00N 40°38' W 074°08'0 0.0
2018-Jan-19 03:29N 40°38' W 074°08'0 0.0
2018-Jan-19 03:00N 40°38' W 074°08'0 0.0
2018-Jan-19 02:30N 40°38' W 074°08'0 0.0
2018-Jan-19 02:00N 40°38' W 074°08'0 0.0
2018-Jan-19 01:30N 40°38' W 074°08'0 0.0
2018-Jan-19 01:00N 40°38' W 074°08'0 0.0
2018-Jan-19 00:28N 40°38' W 074°08'0 0.0
2018-Jan-19 00:00N 40°38' W 074°08'0 0.0
2018-Jan-18 23:30N 40°38' W 074°08'0 0.0
2018-Jan-18 22:59N 40°38' W 074°08'2 3.1
2018-Jan-18 22:29N 40°39' W 074°10'0 0.0
2018-Jan-18 21:59N 40°39' W 074°10'0 0.0
2018-Jan-18 21:30N 40°39' W 074°10'0 0.1
2018-Jan-18 20:59N 40°39' W 074°10'1 3.0
2018-Jan-18 20:30N 40°38' W 074°08'0 0.0
2018-Jan-18 20:00N 40°38' W 074°08'0 0.0
2018-Jan-18 19:30N 40°38' W 074°08'0 0.0
2018-Jan-18 19:00N 40°38' W 074°08'0 0.0
2018-Jan-18 18:30N 40°38' W 074°08'0 0.0
2018-Jan-18 18:00N 40°38' W 074°08'0 0.0
2018-Jan-18 17:28N 40°38' W 074°08'0 0.0
2018-Jan-18 16:58N 40°38' W 074°08'0 0.0
2018-Jan-18 16:30N 40°38' W 074°08'0 0.0
2018-Jan-18 16:00N 40°38' W 074°08'1 2.3
2018-Jan-18 15:30N 40°38' W 074°09'0 0.9
2018-Jan-18 15:00N 40°39' W 074°10'2 4.8
2018-Jan-18 14:30N 40°39' W 074°07'2 4.6
2018-Jan-18 14:00N 40°40' W 074°04'0 0.1
2018-Jan-18 13:30N 40°40' W 074°04'0 0.0
2018-Jan-18 13:00N 40°40' W 074°04'3 4.2
2018-Jan-18 12:15N 40°38' W 074°08'0 0.0
2018-Jan-18 11:59N 40°38' W 074°08'0 0.0
2018-Jan-18 11:01N 40°38' W 074°08'0 0.0
2018-Jan-18 10:52N 40°38' W 074°08'0 0.0
2018-Jan-18 10:29N 40°38' W 074°08'0 0.0
2018-Jan-18 09:58N 40°38' W 074°08'0 0.0
2018-Jan-18 06:57N 40°38' W 074°08'0 0.0
2018-Jan-18 05:30N 40°38' W 074°08'0 0.0
2018-Jan-18 05:00N 40°38' W 074°08'0 0.0
2018-Jan-18 04:28N 40°38' W 074°08'0 0.0
2018-Jan-18 04:00N 40°38' W 074°08'2 3.6
2018-Jan-18 03:30N 40°39' W 074°06'3 6.9
2018-Jan-18 03:00N 40°41' W 074°02'1 2.8
2018-Jan-18 02:30N 40°41' W 074°00'1 1.4
2018-Jan-18 02:00N 40°41' W 074°01'4 7.0
2018-Jan-18 01:30N 40°39' W 074°05'2 3.6
2018-Jan-18 00:59N 40°39' W 074°07'0 0.1
2018-Jan-17 23:59N 40°39' W 074°07'0 3.3
2018-Jan-17 23:57N 40°39' W 074°07'  

Dump ship's entire track history